createdAt,value
2023-04-12T00:00:27.275Z,4.25
2023-04-12T00:02:54.953Z,4.22
2023-04-12T00:05:30.831Z,3.65
2023-04-12T00:08:00.980Z,3.80
2023-04-12T00:10:33.726Z,3.92
2023-04-12T00:13:01.031Z,4.00
2023-04-12T00:15:57.729Z,3.58
2023-04-12T00:18:25.383Z,3.90
2023-04-12T00:20:58.090Z,3.90
2023-04-12T00:23:24.725Z,4.25
2023-04-12T00:26:01.917Z,3.40
2023-04-12T00:28:31.042Z,3.70
2023-04-12T00:31:02.910Z,3.28
2023-04-12T00:33:55.121Z,3.50
2023-04-12T00:36:22.771Z,3.15
2023-04-12T00:41:42.675Z,3.60
2023-04-12T00:44:18.168Z,3.30
2023-04-12T00:46:47.186Z,3.05
2023-04-12T00:49:41.390Z,2.97
2023-04-12T00:52:14.578Z,2.80
2023-04-12T00:54:43.818Z,3.17
2023-04-12T00:57:12.683Z,3.38
2023-04-12T00:59:45.938Z,3.20
2023-04-12T01:02:12.852Z,3.15
2023-04-12T01:04:44.131Z,2.88
2023-04-12T01:07:29.395Z,3.28
2023-04-12T01:10:04.837Z,2.83
2023-04-12T01:12:46.791Z,2.85
2023-04-12T01:15:16.521Z,3.38
2023-04-12T01:17:58.160Z,3.13
2023-04-12T01:20:33.637Z,3.22
2023-04-12T01:23:14.556Z,3.00
2023-04-12T01:25:48.682Z,3.28
2023-04-12T01:28:22.569Z,3.10
2023-04-12T01:31:15.510Z,2.88
2023-04-12T01:33:45.269Z,3.80
2023-04-12T01:36:22.122Z,2.83
2023-04-12T01:38:51.984Z,3.00
2023-04-12T01:41:24.795Z,2.10
2023-04-12T01:43:52.720Z,2.50
2023-04-12T01:46:22.900Z,2.40
2023-04-12T01:52:12.765Z,2.50
2023-04-12T01:55:07.197Z,2.00
2023-04-12T01:57:36.051Z,2.28
2023-04-12T02:00:06.532Z,2.65
2023-04-12T02:02:41.099Z,2.17
2023-04-12T02:05:10.089Z,2.10
2023-04-12T02:07:40.646Z,2.42
2023-04-12T02:10:13.575Z,2.53
2023-04-12T02:12:41.262Z,2.42
2023-04-12T02:15:08.994Z,2.47
2023-04-12T02:17:37.350Z,2.03
2023-04-12T02:20:09.929Z,2.25
2023-04-12T02:22:41.704Z,2.00
2023-04-12T02:25:13.971Z,1.90
2023-04-12T02:27:48.720Z,2.25
2023-04-12T02:30:17.011Z,1.83
2023-04-12T02:32:53.770Z,2.10
2023-04-12T02:35:31.727Z,2.00
2023-04-12T02:38:13.429Z,1.70
2023-04-12T02:40:42.821Z,1.88
2023-04-12T02:43:14.675Z,2.13
2023-04-12T02:45:47.655Z,2.05
2023-04-12T02:48:25.869Z,1.92
2023-04-12T02:50:54.714Z,2.08
2023-04-12T02:53:29.766Z,1.92
2023-04-12T02:56:15.657Z,1.80
2023-04-12T02:58:44.812Z,1.67
2023-04-12T03:01:17.029Z,2.20
2023-04-12T03:04:04.933Z,2.15
2023-04-12T03:07:06.244Z,1.58
2023-04-12T03:09:47.567Z,1.60
2023-04-12T03:12:16.776Z,2.10
2023-04-12T03:14:56.690Z,1.92
2023-04-12T03:17:28.755Z,1.90
2023-04-12T03:22:58.668Z,1.35
2023-04-12T03:25:27.137Z,2.20
2023-04-12T03:28:03.694Z,2.05
2023-04-12T03:30:51.911Z,1.77
2023-04-12T03:33:22.718Z,1.70
2023-04-12T03:35:52.843Z,2.10
2023-04-12T03:38:20.676Z,1.55
2023-04-12T03:41:12.873Z,2.20
2023-04-12T03:43:42.486Z,1.50
2023-04-12T03:46:19.008Z,1.77
2023-04-12T03:49:11.472Z,2.53
2023-04-12T03:51:48.717Z,2.33
2023-04-12T03:54:18.656Z,2.28
2023-04-12T03:56:58.986Z,1.85
2023-04-12T04:03:05.114Z,1.50
2023-04-12T04:08:33.205Z,1.55
2023-04-12T04:11:01.042Z,1.67
2023-04-12T04:13:34.647Z,1.90
2023-04-12T04:16:07.362Z,1.50
2023-04-12T04:18:36.112Z,0.80
2023-04-12T04:21:05.057Z,2.15
2023-04-12T04:26:38.409Z,1.60
2023-04-12T04:29:16.708Z,1.60
2023-04-12T04:32:09.580Z,1.80
2023-04-12T04:35:08.661Z,1.60
2023-04-12T04:37:57.982Z,1.60
2023-04-12T04:40:32.354Z,1.20
2023-04-12T04:43:07.791Z,2.08
2023-04-12T04:45:43.723Z,1.23
2023-04-12T04:48:11.035Z,1.83
2023-04-12T04:50:55.657Z,1.80
2023-04-12T04:53:48.786Z,1.95
2023-04-12T04:56:23.763Z,1.50
2023-04-12T04:58:54.065Z,1.60
2023-04-12T05:01:29.357Z,2.05
2023-04-12T05:03:58.788Z,2.15
2023-04-12T05:06:28.886Z,1.80
2023-04-12T05:08:58.930Z,2.17
2023-04-12T05:11:27.243Z,1.70
2023-04-12T05:13:55.831Z,1.80
2023-04-12T05:16:28.815Z,2.30
2023-04-12T05:19:15.646Z,1.60
2023-04-12T05:21:42.785Z,1.77
2023-04-12T05:25:10.141Z,2.15
2023-04-12T05:27:45.171Z,2.00
2023-04-12T05:30:16.648Z,1.88
2023-04-12T05:32:47.185Z,0.90
2023-04-12T05:35:16.797Z,1.77
2023-04-12T05:37:44.753Z,2.40
2023-04-12T05:40:19.828Z,1.63
2023-04-12T05:42:50.626Z,1.50
2023-04-12T05:45:18.730Z,1.85
2023-04-12T05:47:46.734Z,1.90
2023-04-12T05:50:14.811Z,1.70
2023-04-12T05:52:42.696Z,1.67
2023-04-12T05:55:10.707Z,1.92
2023-04-12T05:57:41.021Z,1.70
2023-04-12T06:00:14.119Z,1.90
2023-04-12T06:02:45.383Z,1.50
2023-04-12T06:05:43.893Z,1.63
2023-04-12T06:08:12.845Z,1.58
2023-04-12T06:10:42.717Z,1.73
2023-04-12T06:13:36.687Z,1.58
2023-04-12T06:16:05.905Z,1.95
2023-04-12T06:18:33.161Z,1.90
2023-04-12T06:21:11.265Z,1.85
2023-04-12T06:23:40.689Z,2.53
2023-04-12T06:26:15.050Z,1.65
2023-04-12T06:28:44.685Z,2.20
2023-04-12T06:31:12.774Z,2.20
2023-04-12T06:33:47.328Z,2.10
2023-04-12T06:36:21.036Z,1.52
2023-04-12T06:38:50.828Z,1.58
2023-04-12T06:41:18.651Z,1.95
2023-04-12T06:43:46.675Z,1.95
2023-04-12T06:46:23.590Z,1.95
2023-04-12T06:51:47.701Z,1.45
2023-04-12T06:54:14.798Z,2.08
2023-04-12T06:56:47.822Z,1.60
2023-04-12T06:59:14.701Z,1.48
2023-04-12T07:02:11.286Z,1.60
2023-04-12T07:04:38.640Z,2.20
2023-04-12T07:10:09.329Z,2.70
2023-04-12T07:12:36.871Z,1.75
2023-04-12T07:15:05.379Z,1.73
2023-04-12T07:17:37.750Z,1.60
2023-04-12T07:20:05.119Z,1.88
2023-04-12T07:22:33.088Z,1.80
2023-04-12T07:25:00.848Z,1.60
2023-04-12T07:27:30.137Z,1.50
2023-04-12T07:29:58.841Z,1.50
2023-04-12T07:32:32.295Z,2.08
2023-04-12T07:35:00.702Z,1.48
2023-04-12T07:37:31.336Z,1.88
2023-04-12T07:39:58.711Z,1.80
2023-04-12T07:42:35.867Z,2.28
2023-04-12T07:45:03.914Z,1.80
2023-04-12T07:47:30.758Z,1.90
2023-04-12T07:49:58.934Z,1.55
2023-04-12T07:55:44.642Z,1.80
2023-04-12T08:01:02.719Z,1.83
2023-04-12T08:03:30.957Z,2.00
2023-04-12T08:05:59.175Z,1.92
2023-04-12T08:08:27.028Z,1.90
2023-04-12T08:11:07.769Z,1.92
2023-04-12T08:13:35.549Z,2.30
2023-04-12T08:16:03.184Z,1.48
2023-04-12T08:18:56.812Z,2.05
2023-04-12T08:21:53.495Z,1.92
2023-04-12T08:24:20.837Z,1.70
2023-04-12T08:27:14.786Z,1.77
2023-04-12T08:29:42.752Z,2.05
2023-04-12T08:35:05.720Z,2.00
2023-04-12T08:37:38.870Z,2.00
2023-04-12T08:40:12.678Z,1.88
2023-04-12T08:42:44.833Z,1.88
2023-04-12T08:45:13.196Z,1.90
2023-04-12T08:47:42.904Z,1.65
2023-04-12T08:50:14.077Z,2.20
2023-04-12T08:53:10.110Z,1.90
2023-04-12T08:55:38.680Z,1.67
2023-04-12T08:58:09.424Z,1.40
2023-04-12T09:00:37.404Z,1.70
2023-04-12T09:03:36.620Z,1.50
2023-04-12T09:06:05.308Z,1.88
2023-04-12T09:08:52.359Z,1.73
2023-04-12T09:11:26.708Z,1.70
2023-04-12T09:13:55.940Z,1.50
2023-04-12T09:16:36.367Z,1.48
2023-04-12T09:19:05.243Z,2.00
2023-04-12T09:21:39.642Z,1.63
2023-04-12T09:24:14.648Z,1.83
2023-04-12T09:26:42.704Z,1.60
2023-04-12T09:29:27.431Z,1.75
2023-04-12T09:32:07.529Z,1.80
2023-04-12T09:35:01.451Z,1.30
2023-04-12T09:37:31.199Z,1.50
2023-04-12T09:40:12.217Z,2.15
2023-04-12T09:42:58.945Z,1.52
2023-04-12T09:45:28.046Z,1.75
2023-04-12T09:48:01.005Z,1.42
2023-04-12T09:50:30.480Z,1.20
2023-04-12T09:53:00.604Z,1.58
2023-04-12T09:55:31.944Z,1.48
2023-04-12T09:58:09.232Z,1.65
2023-04-12T10:00:42.805Z,1.48
2023-04-12T10:03:12.371Z,1.42
2023-04-12T10:05:42.283Z,1.75
2023-04-12T10:08:15.167Z,1.80
2023-04-12T10:10:50.095Z,1.70
2023-04-12T10:13:44.355Z,1.63
2023-04-12T10:16:14.009Z,1.40
2023-04-12T10:21:34.709Z,1.15
2023-04-12T10:24:02.838Z,1.77
2023-04-12T10:26:31.533Z,1.70
2023-04-12T10:29:25.389Z,1.40
2023-04-12T10:32:22.112Z,1.30
2023-04-12T10:34:58.582Z,1.40
2023-04-12T10:38:02.064Z,1.35
2023-04-12T10:40:32.478Z,1.40
2023-04-12T10:43:18.957Z,1.85
2023-04-12T10:45:47.037Z,1.40
2023-04-12T10:48:33.025Z,1.60
2023-04-12T10:51:27.925Z,1.65
2023-04-12T10:54:07.611Z,1.80
2023-04-12T10:56:37.117Z,1.52
2023-04-12T10:59:16.973Z,1.70
2023-04-12T11:02:09.965Z,1.45
2023-04-12T11:04:38.914Z,1.45
2023-04-12T11:07:12.742Z,1.60
2023-04-12T11:12:39.036Z,1.60
2023-04-12T11:15:07.195Z,1.70
2023-04-12T11:18:01.903Z,2.13
2023-04-12T11:20:28.786Z,1.77
2023-04-12T11:23:03.222Z,1.88
2023-04-12T11:25:31.684Z,1.90
2023-04-12T11:31:20.468Z,1.83
2023-04-12T11:33:48.742Z,2.08
2023-04-12T11:36:22.612Z,2.50
2023-04-12T11:38:51.753Z,2.25
2023-04-12T11:41:18.783Z,1.90
2023-04-12T11:47:04.270Z,2.45
2023-04-12T11:49:32.956Z,2.30
2023-04-12T11:52:04.924Z,2.55
2023-04-12T11:54:34.148Z,2.63
2023-04-12T11:57:05.067Z,3.00
2023-04-12T11:59:33.954Z,2.55
2023-04-12T12:02:08.310Z,2.65
2023-04-12T12:04:50.737Z,2.75
2023-04-12T12:07:19.607Z,2.85
2023-04-12T12:09:47.032Z,3.00
2023-04-12T12:15:08.052Z,2.75
2023-04-12T12:17:41.063Z,2.95
2023-04-12T12:20:20.598Z,3.25
2023-04-12T12:23:14.607Z,2.95
2023-04-12T12:25:46.831Z,2.90
2023-04-12T12:28:14.774Z,3.40
2023-04-12T12:33:46.875Z,2.90
2023-04-12T12:36:20.775Z,3.60
2023-04-12T12:38:52.892Z,2.95
2023-04-12T12:41:54.716Z,3.00
2023-04-12T12:44:24.001Z,2.97
2023-04-12T12:46:56.886Z,3.28
2023-04-12T12:49:30.776Z,3.13
2023-04-12T12:52:03.711Z,2.83
2023-04-12T12:54:40.198Z,3.20
2023-04-12T13:00:01.362Z,3.28
2023-04-12T13:02:28.959Z,3.63
2023-04-12T13:04:57.286Z,2.50
2023-04-12T13:07:24.686Z,3.13
2023-04-12T13:09:52.706Z,2.58
2023-04-12T13:12:24.706Z,2.50
2023-04-12T13:15:00.331Z,2.58
2023-04-12T13:17:41.253Z,1.98
2023-04-12T13:20:09.456Z,2.30
2023-04-12T13:22:36.913Z,2.17
2023-04-12T13:25:10.050Z,2.15
2023-04-12T13:27:37.941Z,1.92
2023-04-12T13:30:05.526Z,2.40
2023-04-12T13:32:32.721Z,1.75
2023-04-12T13:35:06.525Z,1.80
2023-04-12T13:37:34.717Z,1.55
2023-04-12T13:40:03.626Z,1.90
2023-04-12T13:42:30.881Z,2.00
2023-04-12T13:44:58.867Z,2.17
2023-04-12T13:50:18.755Z,1.60
2023-04-12T13:52:46.670Z,2.60
2023-04-12T13:55:14.696Z,1.70
2023-04-12T13:57:43.270Z,1.42
2023-04-12T14:00:11.366Z,1.65
2023-04-12T14:02:39.143Z,1.52
2023-04-12T14:05:12.132Z,1.67
2023-04-12T14:07:47.808Z,1.67
2023-04-12T14:10:14.753Z,1.90
2023-04-12T14:12:46.858Z,1.70
2023-04-12T14:15:14.665Z,1.88
2023-04-12T14:17:42.835Z,2.00
2023-04-12T14:20:10.758Z,1.88
2023-04-12T14:22:38.756Z,1.95
2023-04-12T14:25:07.994Z,1.50
2023-04-12T14:27:35.670Z,2.00
2023-04-12T14:30:03.413Z,2.10
2023-04-12T14:32:30.896Z,1.70
2023-04-12T14:35:23.033Z,2.00
2023-04-12T14:37:50.677Z,2.10
2023-04-12T14:40:23.815Z,1.98
2023-04-12T14:42:50.802Z,1.58
2023-04-12T14:45:21.211Z,1.90
2023-04-12T14:50:38.527Z,2.17
2023-04-12T14:53:11.085Z,2.35
2023-04-12T14:55:38.675Z,2.20
2023-04-12T15:01:02.935Z,2.83
2023-04-12T15:03:33.457Z,2.60
2023-04-12T15:06:00.650Z,1.90
2023-04-12T15:08:29.525Z,1.58
2023-04-12T15:11:01.778Z,1.90
2023-04-12T15:13:33.361Z,2.30
2023-04-12T15:16:02.739Z,3.50
2023-04-12T15:18:30.748Z,1.98
2023-04-12T15:21:00.248Z,1.80
2023-04-12T15:23:28.719Z,2.50
2023-04-12T15:26:02.606Z,2.10
2023-04-12T15:28:36.745Z,1.95
2023-04-12T15:31:05.021Z,3.10
2023-04-12T15:36:50.948Z,2.88
2023-04-12T15:39:18.853Z,2.75
2023-04-12T15:44:38.719Z,2.53
2023-04-12T15:47:11.496Z,3.08
2023-04-12T15:49:44.882Z,2.25
2023-04-12T15:52:12.936Z,2.58
2023-04-12T15:54:48.797Z,2.15
2023-04-12T15:57:16.679Z,2.10
2023-04-12T15:59:44.693Z,2.30
2023-04-12T16:02:12.989Z,1.90
2023-04-12T16:04:50.737Z,2.47
2023-04-12T16:07:18.773Z,2.08
2023-04-12T16:09:50.682Z,2.17
2023-04-12T16:12:18.719Z,2.22
2023-04-12T16:14:51.377Z,2.30
2023-04-12T16:17:19.961Z,2.38
2023-04-12T16:20:21.236Z,2.55
2023-04-12T16:22:50.285Z,2.25
2023-04-12T16:25:18.938Z,2.35
2023-04-12T16:27:48.932Z,2.08
2023-04-12T16:30:17.073Z,2.25
2023-04-12T16:32:46.776Z,2.65
2023-04-12T16:35:16.180Z,2.30
2023-04-12T16:37:45.942Z,2.13
2023-04-12T16:42:57.718Z,2.42
2023-04-12T16:45:25.029Z,2.50
2023-04-12T16:51:04.655Z,2.45
2023-04-12T16:53:36.917Z,3.33
2023-04-12T16:56:05.903Z,2.80
2023-04-12T16:58:36.141Z,3.25
2023-04-12T17:01:37.604Z,2.92
2023-04-12T17:04:09.702Z,3.10
2023-04-12T17:06:44.268Z,2.88
2023-04-12T17:09:16.260Z,3.25
2023-04-12T17:11:48.861Z,2.70
2023-04-12T17:14:16.952Z,2.78
2023-04-12T17:17:16.279Z,2.50
2023-04-12T17:19:45.274Z,2.67
2023-04-12T17:22:13.668Z,2.67
2023-04-12T17:24:47.576Z,2.00
2023-04-12T17:27:42.553Z,2.63
2023-04-12T17:30:12.326Z,2.60
2023-04-12T17:35:37.046Z,2.80
2023-04-12T17:38:05.058Z,2.60
2023-04-12T17:40:32.806Z,3.20
2023-04-12T17:43:01.019Z,2.22
2023-04-12T17:45:28.760Z,2.45
2023-04-12T17:48:01.895Z,2.78
2023-04-12T17:50:29.248Z,2.65
2023-04-12T17:53:03.475Z,3.05
2023-04-12T17:55:57.205Z,3.22
2023-04-12T17:58:25.265Z,3.10
2023-04-12T18:01:02.633Z,3.40
2023-04-12T18:03:34.631Z,3.25
2023-04-12T18:06:04.229Z,2.80
2023-04-12T18:08:33.505Z,2.50
2023-04-12T18:13:55.023Z,2.70
2023-04-12T18:22:30.559Z,2.20
2023-04-12T18:33:46.501Z,2.80
2023-04-12T18:36:20.670Z,3.20
2023-04-12T18:47:30.330Z,3.05
2023-04-12T18:55:32.830Z,3.35
2023-04-12T19:00:56.871Z,3.00
2023-04-12T19:03:29.232Z,3.60
2023-04-12T19:05:58.726Z,3.50
2023-04-12T19:23:05.542Z,2.20
2023-04-12T19:39:19.470Z,1.10
2023-04-12T19:41:49.409Z,0.88
2023-04-12T19:44:17.580Z,1.50
2023-04-12T19:47:10.846Z,1.40
2023-04-12T19:52:28.672Z,1.80
2023-04-12T19:55:22.251Z,1.98
2023-04-12T19:57:57.496Z,2.15
2023-04-12T20:00:29.349Z,2.70
2023-04-12T20:02:57.300Z,2.25
2023-04-12T20:05:25.303Z,2.05
2023-04-12T20:07:55.474Z,2.20
2023-04-12T20:10:23.021Z,1.80
2023-04-12T20:13:16.228Z,2.00
2023-04-12T20:15:44.927Z,1.90
2023-04-12T20:18:13.516Z,1.85
2023-04-12T20:20:44.191Z,1.52
2023-04-12T20:23:14.051Z,1.77
2023-04-12T20:26:07.546Z,1.50
2023-04-12T20:28:34.804Z,1.30
2023-04-12T20:31:07.893Z,1.25
2023-04-12T20:33:35.252Z,1.42
2023-04-12T20:36:10.118Z,1.20
2023-04-12T20:38:39.157Z,1.15
2023-04-12T20:41:12.033Z,1.40
2023-04-12T20:43:46.596Z,1.20
2023-04-12T20:46:17.459Z,0.90
2023-04-12T20:48:53.224Z,1.30
2023-04-12T20:51:27.873Z,1.27
2023-04-12T20:54:02.188Z,1.30
2023-04-12T20:56:33.620Z,1.40
2023-04-12T20:59:05.961Z,1.40
2023-04-12T21:01:33.040Z,1.15
2023-04-12T21:04:10.915Z,1.15
2023-04-12T21:06:39.035Z,1.30
2023-04-12T21:09:08.455Z,1.35
2023-04-12T21:11:39.255Z,1.13
2023-04-12T21:14:09.665Z,1.33
2023-04-12T21:16:41.845Z,1.40
2023-04-12T21:21:51.474Z,1.60
2023-04-12T21:24:18.940Z,1.35
2023-04-12T21:27:00.612Z,1.10
2023-04-12T21:29:32.004Z,1.50
2023-04-12T21:32:02.264Z,1.33
2023-04-12T21:34:35.036Z,1.50
2023-04-12T21:37:04.234Z,1.55
2023-04-12T21:39:33.096Z,1.40
2023-04-12T21:42:06.013Z,1.60
2023-04-12T21:44:34.476Z,1.70
2023-04-12T21:47:27.565Z,1.35
2023-04-12T21:49:54.834Z,1.50
2023-04-12T21:52:27.572Z,1.38
2023-04-12T21:54:56.035Z,1.67
2023-04-12T21:57:23.050Z,1.98
2023-04-12T21:59:51.269Z,1.50
2023-04-12T22:02:48.319Z,2.05
2023-04-12T22:05:16.836Z,1.90
2023-04-12T22:07:45.233Z,1.52
2023-04-12T22:10:13.750Z,1.90
2023-04-12T22:12:41.020Z,1.73
2023-04-12T22:15:11.956Z,1.80
2023-04-12T22:20:33.897Z,1.50
2023-04-12T22:23:27.208Z,1.70
2023-04-12T22:26:00.019Z,1.90
2023-04-12T22:31:26.224Z,1.85
2023-04-12T22:33:55.317Z,1.80
2023-04-12T22:39:20.157Z,1.77
2023-04-12T22:41:50.174Z,2.00
2023-04-12T22:44:22.520Z,2.33
2023-04-12T22:52:42.824Z,1.95
2023-04-12T22:55:23.419Z,2.63
2023-04-12T22:57:51.015Z,2.17
2023-04-12T23:00:18.713Z,2.53
2023-04-12T23:02:47.969Z,2.50
2023-04-12T23:05:15.042Z,2.70
2023-04-12T23:07:43.695Z,2.53
2023-04-12T23:10:12.280Z,2.50
2023-04-12T23:13:10.309Z,2.60
2023-04-12T23:15:43.313Z,2.63
2023-04-12T23:18:11.276Z,2.65
2023-04-12T23:20:39.001Z,3.20
2023-04-12T23:23:07.425Z,2.92
2023-04-12T23:25:43.414Z,2.88
2023-04-12T23:28:22.739Z,3.10
2023-04-12T23:30:51.495Z,3.15
2023-04-12T23:33:20.617Z,3.35
2023-04-12T23:35:52.074Z,3.60
2023-04-12T23:38:26.244Z,3.58
2023-04-12T23:41:02.470Z,5.22
2023-04-12T23:43:32.727Z,4.10
2023-04-12T23:46:01.633Z,3.60
2023-04-12T23:48:29.614Z,2.97
2023-04-12T23:51:08.015Z,2.70
2023-04-12T23:54:00.948Z,2.78
2023-04-12T23:56:28.790Z,2.95
2023-04-12T23:58:56.752Z,3.00
